sensor_id;sensor_type;location;lat;lon;timestamp;pressure;altitude;pressure_sealevel;temperature;humidity
43119;BME280;28729;49.838;8.650;2023-05-09T00:01:37;100045.53;;;15.87;100.00
43119;BME280;28729;49.838;8.650;2023-05-09T00:05:40;100046.38;;;15.87;100.00
43119;BME280;28729;49.838;8.650;2023-05-09T00:09:42;100045.81;;;15.85;100.00
43119;BME280;28729;49.838;8.650;2023-05-09T00:13:44;100051.41;;;15.80;100.00
43119;BME280;28729;49.838;8.650;2023-05-09T00:17:46;100044.16;;;15.79;100.00
43119;BME280;28729;49.838;8.650;2023-05-09T00:21:48;100040.00;;;15.77;100.00
43119;BME280;28729;49.838;8.650;2023-05-09T00:25:50;100031.13;;;15.75;100.00
43119;BME280;28729;49.838;8.650;2023-05-09T00:29:52;100036.94;;;15.73;100.00
43119;BME280;28729;49.838;8.650;2023-05-09T00:33:54;100026.94;;;15.72;100.00
43119;BME280;28729;49.838;8.650;2023-05-09T00:37:56;100035.28;;;15.72;100.00
43119;BME280;28729;49.838;8.650;2023-05-09T00:41:58;100020.81;;;15.70;100.00
43119;BME280;28729;49.838;8.650;2023-05-09T00:45:59;100013.59;;;15.69;100.00
43119;BME280;28729;49.838;8.650;2023-05-09T00:50:02;100017.50;;;15.68;100.00
43119;BME280;28729;49.838;8.650;2023-05-09T00:54:04;100016.91;;;15.66;100.00
43119;BME280;28729;49.838;8.650;2023-05-09T00:58:10;100011.34;;;15.66;100.00
43119;BME280;28729;49.838;8.650;2023-05-09T01:02:11;100000.81;;;15.63;100.00
43119;BME280;28729;49.838;8.650;2023-05-09T01:06:36;100000.25;;;15.56;100.00
43119;BME280;28729;49.838;8.650;2023-05-09T01:10:50;99988.03;;;15.46;100.00
43119;BME280;28729;49.838;8.650;2023-05-09T01:16:18;99983.03;;;15.33;100.00
43119;BME280;28729;49.838;8.650;2023-05-09T01:20:11;99996.63;;;15.24;100.00
43119;BME280;28729;49.838;8.650;2023-05-09T01:24:24;99986.91;;;15.22;100.00
43119;BME280;28729;49.838;8.650;2023-05-09T01:28:51;99993.59;;;15.26;100.00
43119;BME280;28729;49.838;8.650;2023-05-09T01:32:59;99983.84;;;15.28;100.00
43119;BME280;28729;49.838;8.650;2023-05-09T01:37:07;99980.81;;;15.30;100.00
43119;BME280;28729;49.838;8.650;2023-05-09T01:41:11;99977.75;;;15.32;100.00
43119;BME280;28729;49.838;8.650;2023-05-09T01:45:14;99975.53;;;15.28;100.00
43119;BME280;28729;49.838;8.650;2023-05-09T01:49:17;99970.81;;;15.24;100.00
43119;BME280;28729;49.838;8.650;2023-05-09T01:53:21;99951.66;;;15.17;100.00
43119;BME280;28729;49.838;8.650;2023-05-09T01:57:26;99950.00;;;15.11;100.00
43119;BME280;28729;49.838;8.650;2023-05-09T02:01:28;99954.69;;;15.00;100.00
43119;BME280;28729;49.838;8.650;2023-05-09T02:05:31;99949.97;;;14.86;100.00
43119;BME280;28729;49.838;8.650;2023-05-09T02:09:33;99955.47;;;14.70;100.00
43119;BME280;28729;49.838;8.650;2023-05-09T02:13:35;99961.84;;;14.61;100.00
43119;BME280;28729;49.838;8.650;2023-05-09T02:17:38;99953.44;;;14.50;100.00
43119;BME280;28729;49.838;8.650;2023-05-09T02:21:40;99953.41;;;14.45;100.00
43119;BME280;28729;49.838;8.650;2023-05-09T02:25:44;99948.41;;;14.42;100.00
43119;BME280;28729;49.838;8.650;2023-05-09T02:29:50;99949.81;;;14.40;100.00
43119;BME280;28729;49.838;8.650;2023-05-09T02:33:53;99942.31;;;14.35;100.00
43119;BME280;28729;49.838;8.650;2023-05-09T02:37:57;99932.03;;;14.25;100.00
43119;BME280;28729;49.838;8.650;2023-05-09T02:42:05;99937.25;;;14.17;100.00
43119;BME280;28729;49.838;8.650;2023-05-09T02:46:08;99936.09;;;14.07;100.00
43119;BME280;28729;49.838;8.650;2023-05-09T02:50:11;99935.50;;;14.00;100.00
43119;BME280;28729;49.838;8.650;2023-05-09T02:54:12;99931.56;;;13.91;100.00
43119;BME280;28729;49.838;8.650;2023-05-09T02:58:14;99928.47;;;13.82;100.00
43119;BME280;28729;49.838;8.650;2023-05-09T03:02:18;99931.50;;;13.76;100.00
43119;BME280;28729;49.838;8.650;2023-05-09T03:06:20;99929.78;;;13.70;100.00
43119;BME280;28729;49.838;8.650;2023-05-09T03:10:22;99937.22;;;13.64;100.00
43119;BME280;28729;49.838;8.650;2023-05-09T03:14:23;99933.59;;;13.58;100.00
43119;BME280;28729;49.838;8.650;2023-05-09T03:18:25;99922.22;;;13.55;100.00
43119;BME280;28729;49.838;8.650;2023-05-09T03:22:28;99914.44;;;13.52;100.00
43119;BME280;28729;49.838;8.650;2023-05-09T03:26:34;99908.63;;;13.48;100.00
43119;BME280;28729;49.838;8.650;2023-05-09T03:30:36;99906.38;;;13.45;100.00
43119;BME280;28729;49.838;8.650;2023-05-09T03:34:42;99910.78;;;13.41;100.00
43119;BME280;28729;49.838;8.650;2023-05-09T03:38:44;99897.47;;;13.38;100.00
43119;BME280;28729;49.838;8.650;2023-05-09T03:42:46;99897.16;;;13.34;100.00
43119;BME280;28729;49.838;8.650;2023-05-09T03:46:48;99903.25;;;13.31;100.00
43119;BME280;28729;49.838;8.650;2023-05-09T03:50:51;99901.84;;;13.29;100.00
43119;BME280;28729;49.838;8.650;2023-05-09T03:54:54;99904.59;;;13.29;100.00
43119;BME280;28729;49.838;8.650;2023-05-09T03:58:56;99892.97;;;13.27;100.00
43119;BME280;28729;49.838;8.650;2023-05-09T04:02:59;99897.06;;;13.24;100.00
43119;BME280;28729;49.838;8.650;2023-05-09T04:07:07;99908.16;;;13.24;100.00
43119;BME280;28729;49.838;8.650;2023-05-09T04:11:10;99915.59;;;13.23;100.00
43119;BME280;28729;49.838;8.650;2023-05-09T04:15:15;99916.44;;;13.24;100.00
43119;BME280;28729;49.838;8.650;2023-05-09T04:19:17;99907.06;;;13.25;100.00
43119;BME280;28729;49.838;8.650;2023-05-09T04:23:19;99903.53;;;13.30;100.00
43119;BME280;28729;49.838;8.650;2023-05-09T04:27:21;99901.91;;;13.39;100.00
43119;BME280;28729;49.838;8.650;2023-05-09T04:31:26;99898.41;;;13.54;100.00
43119;BME280;28729;49.838;8.650;2023-05-09T04:35:29;99905.44;;;13.72;100.00
43119;BME280;28729;49.838;8.650;2023-05-09T04:39:31;99901.59;;;13.83;100.00
43119;BME280;28729;49.838;8.650;2023-05-09T04:43:39;99892.00;;;13.96;100.00
43119;BME280;28729;49.838;8.650;2023-05-09T04:47:42;99897.31;;;14.07;100.00
43119;BME280;28729;49.838;8.650;2023-05-09T04:51:43;99896.50;;;14.17;100.00
43119;BME280;28729;49.838;8.650;2023-05-09T04:55:45;99895.97;;;14.30;100.00
43119;BME280;28729;49.838;8.650;2023-05-09T04:59:48;99894.09;;;14.41;100.00
43119;BME280;28729;49.838;8.650;2023-05-09T05:03:51;99879.19;;;14.52;100.00
43119;BME280;28729;49.838;8.650;2023-05-09T05:07:53;99880.56;;;14.65;100.00
43119;BME280;28729;49.838;8.650;2023-05-09T05:11:59;99873.66;;;14.78;100.00
43119;BME280;28729;49.838;8.650;2023-05-09T05:16:05;99874.22;;;14.95;100.00
43119;BME280;28729;49.838;8.650;2023-05-09T05:20:08;99883.09;;;15.18;100.00
43119;BME280;28729;49.838;8.650;2023-05-09T05:24:15;99876.69;;;15.43;100.00
43119;BME280;28729;49.838;8.650;2023-05-09T05:28:17;99881.41;;;15.68;100.00
43119;BME280;28729;49.838;8.650;2023-05-09T05:32:19;99879.66;;;15.87;100.00
43119;BME280;28729;49.838;8.650;2023-05-09T05:36:21;99881.84;;;16.01;100.00
43119;BME280;28729;49.838;8.650;2023-05-09T05:40:23;99868.44;;;16.13;100.00
43119;BME280;28729;49.838;8.650;2023-05-09T05:44:26;99870.59;;;16.26;100.00
43119;BME280;28729;49.838;8.650;2023-05-09T05:48:28;99872.22;;;16.32;100.00
43119;BME280;28729;49.838;8.650;2023-05-09T05:52:31;99870.78;;;16.45;100.00
43119;BME280;28729;49.838;8.650;2023-05-09T05:56:34;99867.00;;;16.65;100.00
43119;BME280;28729;49.838;8.650;2023-05-09T06:00:36;99866.06;;;16.85;100.00
43119;BME280;28729;49.838;8.650;2023-05-09T06:04:42;99860.72;;;16.94;100.00
43119;BME280;28729;49.838;8.650;2023-05-09T06:08:44;99855.13;;;16.99;100.00
43119;BME280;28729;49.838;8.650;2023-05-09T06:12:47;99850.59;;;17.03;100.00
43119;BME280;28729;49.838;8.650;2023-05-09T06:16:50;99853.13;;;17.04;100.00
43119;BME280;28729;49.838;8.650;2023-05-09T06:20:53;99851.19;;;17.00;100.00
43119;BME280;28729;49.838;8.650;2023-05-09T06:24:55;99843.84;;;17.14;100.00
43119;BME280;28729;49.838;8.650;2023-05-09T06:28:57;99833.38;;;17.30;100.00
43119;BME280;28729;49.838;8.650;2023-05-09T06:32:58;99828.97;;;17.53;100.00
43119;BME280;28729;49.838;8.650;2023-05-09T06:37:01;99833.16;;;17.74;100.00
43119;BME280;28729;49.838;8.650;2023-05-09T06:41:02;99832.34;;;17.98;100.00
43119;BME280;28729;49.838;8.650;2023-05-09T06:45:05;99827.22;;;18.05;100.00
43119;BME280;28729;49.838;8.650;2023-05-09T06:49:07;99826.72;;;18.03;100.00
43119;BME280;28729;49.838;8.650;2023-05-09T06:53:08;99822.50;;;18.06;100.00
43119;BME280;28729;49.838;8.650;2023-05-09T06:57:10;99815.03;;;18.20;100.00
43119;BME280;28729;49.838;8.650;2023-05-09T07:01:14;99820.63;;;18.39;100.00
43119;BME280;28729;49.838;8.650;2023-05-09T07:05:16;99811.63;;;18.61;100.00
43119;BME280;28729;49.838;8.650;2023-05-09T07:09:19;99808.38;;;18.73;100.00
43119;BME280;28729;49.838;8.650;2023-05-09T07:13:21;99799.16;;;18.91;100.00
43119;BME280;28729;49.838;8.650;2023-05-09T07:17:23;99798.06;;;19.06;100.00
43119;BME280;28729;49.838;8.650;2023-05-09T07:21:25;99791.50;;;19.16;100.00
43119;BME280;28729;49.838;8.650;2023-05-09T07:25:27;99789.31;;;19.26;100.00
43119;BME280;28729;49.838;8.650;2023-05-09T07:29:29;99780.63;;;19.42;100.00
43119;BME280;28729;49.838;8.650;2023-05-09T07:33:31;99780.13;;;19.40;100.00
43119;BME280;28729;49.838;8.650;2023-05-09T07:37:34;99771.97;;;19.43;100.00
43119;BME280;28729;49.838;8.650;2023-05-09T07:41:35;99764.50;;;19.39;100.00
43119;BME280;28729;49.838;8.650;2023-05-09T07:45:37;99757.28;;;19.51;100.00
43119;BME280;28729;49.838;8.650;2023-05-09T07:49:40;99757.03;;;19.48;100.00
43119;BME280;28729;49.838;8.650;2023-05-09T07:53:44;99759.00;;;19.47;100.00
43119;BME280;28729;49.838;8.650;2023-05-09T07:57:45;99762.34;;;19.49;100.00
43119;BME280;28729;49.838;8.650;2023-05-09T08:01:48;99759.94;;;19.56;100.00
43119;BME280;28729;49.838;8.650;2023-05-09T08:05:53;99746.41;;;19.64;100.00
43119;BME280;28729;49.838;8.650;2023-05-09T08:10:00;99746.78;;;19.57;100.00
43119;BME280;28729;49.838;8.650;2023-05-09T08:14:02;99738.34;;;19.48;100.00
43119;BME280;28729;49.838;8.650;2023-05-09T08:18:04;99745.66;;;19.44;100.00
43119;BME280;28729;49.838;8.650;2023-05-09T08:22:06;99744.63;;;19.40;100.00
43119;BME280;28729;49.838;8.650;2023-05-09T08:26:08;99727.88;;;19.40;100.00
43119;BME280;28729;49.838;8.650;2023-05-09T08:30:10;99719.06;;;19.47;100.00
43119;BME280;28729;49.838;8.650;2023-05-09T08:34:13;99718.16;;;19.65;100.00
43119;BME280;28729;49.838;8.650;2023-05-09T08:38:14;99705.59;;;19.76;100.00
43119;BME280;28729;49.838;8.650;2023-05-09T08:42:16;99699.81;;;20.09;100.00
43119;BME280;28729;49.838;8.650;2023-05-09T08:46:30;99698.56;;;20.38;100.00
43119;BME280;28729;49.838;8.650;2023-05-09T08:50:34;99700.94;;;20.44;100.00
43119;BME280;28729;49.838;8.650;2023-05-09T08:54:36;99699.47;;;20.47;100.00
43119;BME280;28729;49.838;8.650;2023-05-09T08:58:39;99693.38;;;20.67;100.00
43119;BME280;28729;49.838;8.650;2023-05-09T09:02:40;99690.00;;;20.79;99.16
43119;BME280;28729;49.838;8.650;2023-05-09T09:06:45;99689.50;;;20.55;99.72
43119;BME280;28729;49.838;8.650;2023-05-09T09:10:47;99678.78;;;20.34;100.00
43119;BME280;28729;49.838;8.650;2023-05-09T09:14:52;99678.63;;;20.53;100.00
43119;BME280;28729;49.838;8.650;2023-05-09T09:18:55;99664.50;;;20.89;98.70
43119;BME280;28729;49.838;8.650;2023-05-09T09:23:02;99670.19;;;21.07;97.63
43119;BME280;28729;49.838;8.650;2023-05-09T09:27:05;99660.88;;;20.89;96.60
43119;BME280;28729;49.838;8.650;2023-05-09T09:31:26;99653.44;;;20.53;98.52
43119;BME280;28729;49.838;8.650;2023-05-09T09:35:37;99649.72;;;20.21;100.00
43119;BME280;28729;49.838;8.650;2023-05-09T09:39:52;99643.94;;;20.18;100.00
43119;BME280;28729;49.838;8.650;2023-05-09T09:43:55;99638.28;;;20.54;100.00
43119;BME280;28729;49.838;8.650;2023-05-09T09:48:05;99637.84;;;21.01;98.91
43119;BME280;28729;49.838;8.650;2023-05-09T09:52:07;99622.94;;;21.31;98.76
43119;BME280;28729;49.838;8.650;2023-05-09T09:56:09;99620.88;;;21.46;95.20
43119;BME280;28729;49.838;8.650;2023-05-09T10:00:12;99612.47;;;21.54;96.03
43119;BME280;28729;49.838;8.650;2023-05-09T10:04:15;99613.47;;;21.67;92.59
43119;BME280;28729;49.838;8.650;2023-05-09T10:08:24;99601.94;;;21.69;93.23
43119;BME280;28729;49.838;8.650;2023-05-09T10:12:29;99596.13;;;22.00;92.32
43119;BME280;28729;49.838;8.650;2023-05-09T10:16:38;99593.34;;;22.17;88.40
43119;BME280;28729;49.838;8.650;2023-05-09T10:20:46;99591.03;;;22.19;86.85
43119;BME280;28729;49.838;8.650;2023-05-09T10:25:01;99571.19;;;22.24;85.45
43119;BME280;28729;49.838;8.650;2023-05-09T10:29:07;99568.06;;;22.35;83.95
43119;BME280;28729;49.838;8.650;2023-05-09T10:33:12;99553.47;;;22.50;82.74
43119;BME280;28729;49.838;8.650;2023-05-09T10:37:16;99552.69;;;22.79;83.31
43119;BME280;28729;49.838;8.650;2023-05-09T10:41:19;99550.66;;;22.97;78.63
43119;BME280;28729;49.838;8.650;2023-05-09T10:45:22;99542.81;;;23.11;75.31
43119;BME280;28729;49.838;8.650;2023-05-09T10:49:24;99538.13;;;23.15;75.32
43119;BME280;28729;49.838;8.650;2023-05-09T10:53:40;99520.28;;;23.41;72.88
43119;BME280;28729;49.838;8.650;2023-05-09T10:57:52;99519.22;;;23.66;71.07
43119;BME280;28729;49.838;8.650;2023-05-09T11:01:56;99511.91;;;23.74;70.30
43119;BME280;28729;49.838;8.650;2023-05-09T11:06:01;99499.66;;;24.03;71.95
43119;BME280;28729;49.838;8.650;2023-05-09T11:10:07;99492.19;;;24.07;67.12
43119;BME280;28729;49.838;8.650;2023-05-09T11:14:27;99488.88;;;23.93;67.66
43119;BME280;28729;49.838;8.650;2023-05-09T11:18:32;99481.13;;;23.90;69.58
43119;BME280;28729;49.838;8.650;2023-05-09T11:26:45;99468.56;;;24.94;62.38
43119;BME280;28729;49.838;8.650;2023-05-09T11:30:50;99452.59;;;24.74;62.99
43119;BME280;28729;49.838;8.650;2023-05-09T11:35:05;99451.19;;;24.31;63.10
43119;BME280;28729;49.838;8.650;2023-05-09T11:39:09;99449.94;;;23.83;66.83
43119;BME280;28729;49.838;8.650;2023-05-09T11:43:11;99444.16;;;23.25;67.73
43119;BME280;28729;49.838;8.650;2023-05-09T11:47:14;99440.59;;;22.86;70.40
43119;BME280;28729;49.838;8.650;2023-05-09T11:51:17;99441.94;;;22.59;69.84
43119;BME280;28729;49.838;8.650;2023-05-09T11:55:20;99434.69;;;22.58;69.34
43119;BME280;28729;49.838;8.650;2023-05-09T11:59:25;99428.84;;;22.63;71.39
43119;BME280;28729;49.838;8.650;2023-05-09T12:03:28;99420.25;;;22.68;71.75
43119;BME280;28729;49.838;8.650;2023-05-09T12:07:30;99413.56;;;22.82;69.92
43119;BME280;28729;49.838;8.650;2023-05-09T12:11:32;99408.13;;;22.77;68.84
43119;BME280;28729;49.838;8.650;2023-05-09T12:15:35;99402.22;;;22.69;70.06
43119;BME280;28729;49.838;8.650;2023-05-09T12:19:38;99401.44;;;23.11;69.79
43119;BME280;28729;49.838;8.650;2023-05-09T12:23:40;99394.72;;;24.15;65.86
43119;BME280;28729;49.838;8.650;2023-05-09T12:27:44;99381.03;;;24.50;64.28
43119;BME280;28729;49.838;8.650;2023-05-09T12:31:46;99375.75;;;24.37;63.25
43119;BME280;28729;49.838;8.650;2023-05-09T12:36:06;99361.19;;;24.22;64.75
43119;BME280;28729;49.838;8.650;2023-05-09T12:40:10;99355.91;;;23.96;63.19
43119;BME280;28729;49.838;8.650;2023-05-09T12:44:20;99348.41;;;24.00;64.08
43119;BME280;28729;49.838;8.650;2023-05-09T12:48:23;99331.03;;;24.35;63.00
43119;BME280;28729;49.838;8.650;2023-05-09T12:52:32;99325.09;;;24.77;62.81
43119;BME280;28729;49.838;8.650;2023-05-09T12:56:34;99319.09;;;25.19;58.50
43119;BME280;28729;49.838;8.650;2023-05-09T13:00:43;99321.09;;;25.18;58.62
43119;BME280;28729;49.838;8.650;2023-05-09T13:04:45;99311.03;;;25.17;58.25
43119;BME280;28729;49.838;8.650;2023-05-09T13:08:55;99304.94;;;25.31;58.34
43119;BME280;28729;49.838;8.650;2023-05-09T13:12:58;99302.59;;;25.33;56.71
43119;BME280;28729;49.838;8.650;2023-05-09T13:16:59;99293.47;;;25.24;56.72
43119;BME280;28729;49.838;8.650;2023-05-09T13:21:01;99283.56;;;25.30;57.17
43119;BME280;28729;49.838;8.650;2023-05-09T13:25:04;99275.34;;;26.01;57.08
43119;BME280;28729;49.838;8.650;2023-05-09T13:29:07;99266.34;;;26.66;55.44
43119;BME280;28729;49.838;8.650;2023-05-09T13:33:08;99263.16;;;26.87;52.69
43119;BME280;28729;49.838;8.650;2023-05-09T13:37:28;99254.72;;;26.51;53.16
43119;BME280;28729;49.838;8.650;2023-05-09T13:41:35;99253.84;;;25.80;56.20
43119;BME280;28729;49.838;8.650;2023-05-09T13:45:38;99247.81;;;25.34;56.88
43119;BME280;28729;49.838;8.650;2023-05-09T13:49:40;99241.56;;;25.13;58.30
43119;BME280;28729;49.838;8.650;2023-05-09T13:53:42;99234.53;;;25.19;58.26
43119;BME280;28729;49.838;8.650;2023-05-09T13:57:45;99227.56;;;25.29;58.13
43119;BME280;28729;49.838;8.650;2023-05-09T14:01:47;99221.28;;;25.35;57.47
43119;BME280;28729;49.838;8.650;2023-05-09T14:05:49;99214.81;;;25.35;56.89
43119;BME280;28729;49.838;8.650;2023-05-09T14:09:54;99212.72;;;25.32;57.39
43119;BME280;28729;49.838;8.650;2023-05-09T14:14:11;99205.88;;;25.49;56.67
43119;BME280;28729;49.838;8.650;2023-05-09T14:18:16;99192.25;;;25.82;57.25
43119;BME280;28729;49.838;8.650;2023-05-09T14:22:21;99197.25;;;25.41;58.37
43119;BME280;28729;49.838;8.650;2023-05-09T14:26:23;99182.56;;;24.60;59.52
43119;BME280;28729;49.838;8.650;2023-05-09T14:30:27;99185.56;;;23.86;62.90
43119;BME280;28729;49.838;8.650;2023-05-09T14:34:33;99190.91;;;23.06;69.11
43119;BME280;28729;49.838;8.650;2023-05-09T14:38:34;99197.06;;;22.33;75.52
43119;BME280;28729;49.838;8.650;2023-05-09T14:42:37;99190.97;;;21.80;80.22
43119;BME280;28729;49.838;8.650;2023-05-09T14:46:39;99177.81;;;21.51;87.45
43119;BME280;28729;49.838;8.650;2023-05-09T14:50:40;99175.06;;;21.33;92.31
43119;BME280;28729;49.838;8.650;2023-05-09T14:54:44;99167.03;;;21.14;98.57
43119;BME280;28729;49.838;8.650;2023-05-09T14:58:46;99164.16;;;20.93;100.00
43119;BME280;28729;49.838;8.650;2023-05-09T15:02:48;99154.44;;;20.91;100.00
43119;BME280;28729;49.838;8.650;2023-05-09T15:06:51;99146.31;;;21.15;100.00
43119;BME280;28729;49.838;8.650;2023-05-09T15:10:52;99139.63;;;21.37;100.00
43119;BME280;28729;49.838;8.650;2023-05-09T15:14:57;99139.31;;;21.60;100.00
43119;BME280;28729;49.838;8.650;2023-05-09T15:19:12;99130.38;;;21.67;100.00
43119;BME280;28729;49.838;8.650;2023-05-09T15:23:13;99132.75;;;21.56;100.00
43119;BME280;28729;49.838;8.650;2023-05-09T15:27:15;99125.63;;;21.29;100.00
43119;BME280;28729;49.838;8.650;2023-05-09T15:31:17;99121.09;;;21.15;100.00
43119;BME280;28729;49.838;8.650;2023-05-09T15:35:22;99116.44;;;21.20;100.00
43119;BME280;28729;49.838;8.650;2023-05-09T15:39:24;99100.31;;;21.16;100.00
43119;BME280;28729;49.838;8.650;2023-05-09T15:43:26;99103.59;;;21.19;100.00
43119;BME280;28729;49.838;8.650;2023-05-09T15:47:28;99088.41;;;21.20;100.00
43119;BME280;28729;49.838;8.650;2023-05-09T15:51:30;99086.03;;;21.09;100.00
43119;BME280;28729;49.838;8.650;2023-05-09T15:55:34;99081.81;;;20.94;100.00
43119;BME280;28729;49.838;8.650;2023-05-09T15:59:36;99083.50;;;20.78;100.00
43119;BME280;28729;49.838;8.650;2023-05-09T16:03:37;99081.25;;;20.63;100.00
43119;BME280;28729;49.838;8.650;2023-05-09T16:07:42;99077.50;;;20.50;100.00
43119;BME280;28729;49.838;8.650;2023-05-09T16:11:46;99068.78;;;20.34;100.00
43119;BME280;28729;49.838;8.650;2023-05-09T16:15:48;99066.72;;;20.14;100.00
43119;BME280;28729;49.838;8.650;2023-05-09T16:19:51;99066.56;;;19.93;100.00
43119;BME280;28729;49.838;8.650;2023-05-09T16:23:54;99062.78;;;19.71;100.00
43119;BME280;28729;49.838;8.650;2023-05-09T16:27:58;99060.28;;;19.52;100.00
43119;BME280;28729;49.838;8.650;2023-05-09T16:32:00;99063.56;;;19.37;100.00
43119;BME280;28729;49.838;8.650;2023-05-09T16:36:02;99059.94;;;19.28;100.00
43119;BME280;28729;49.838;8.650;2023-05-09T16:40:04;99063.38;;;19.25;100.00
43119;BME280;28729;49.838;8.650;2023-05-09T16:44:06;99050.88;;;19.22;100.00
43119;BME280;28729;49.838;8.650;2023-05-09T16:48:08;99042.00;;;19.20;100.00
43119;BME280;28729;49.838;8.650;2023-05-09T16:52:12;99031.34;;;19.22;100.00
43119;BME280;28729;49.838;8.650;2023-05-09T16:56:13;99034.44;;;19.21;100.00
43119;BME280;28729;49.838;8.650;2023-05-09T17:00:16;99033.31;;;19.22;100.00
43119;BME280;28729;49.838;8.650;2023-05-09T17:04:18;99035.44;;;19.25;100.00
43119;BME280;28729;49.838;8.650;2023-05-09T17:08:22;99025.41;;;19.24;100.00
43119;BME280;28729;49.838;8.650;2023-05-09T17:12:24;99031.31;;;19.13;100.00
43119;BME280;28729;49.838;8.650;2023-05-09T17:16:28;99034.56;;;18.98;100.00
43119;BME280;28729;49.838;8.650;2023-05-09T17:20:30;99034.66;;;18.76;100.00
43119;BME280;28729;49.838;8.650;2023-05-09T17:24:34;99030.78;;;18.54;100.00
43119;BME280;28729;49.838;8.650;2023-05-09T17:28:36;99017.03;;;18.27;100.00
43119;BME280;28729;49.838;8.650;2023-05-09T17:32:37;99019.97;;;17.99;100.00
43119;BME280;28729;49.838;8.650;2023-05-09T17:36:39;99016.88;;;17.78;100.00
43119;BME280;28729;49.838;8.650;2023-05-09T17:40:42;99016.72;;;17.61;100.00
43119;BME280;28729;49.838;8.650;2023-05-09T17:44:45;99055.69;;;17.38;100.00
43119;BME280;28729;49.838;8.650;2023-05-09T17:48:48;99056.16;;;17.18;100.00
43119;BME280;28729;49.838;8.650;2023-05-09T17:52:54;99020.72;;;16.96;100.00
43119;BME280;28729;49.838;8.650;2023-05-09T17:57:05;99029.47;;;16.75;100.00
43119;BME280;28729;49.838;8.650;2023-05-09T18:01:19;99021.44;;;16.60;100.00
43119;BME280;28729;49.838;8.650;2023-05-09T18:05:21;99020.09;;;16.57;100.00
43119;BME280;28729;49.838;8.650;2023-05-09T18:09:25;99025.47;;;16.54;100.00
43119;BME280;28729;49.838;8.650;2023-05-09T18:13:28;99017.72;;;16.51;100.00
43119;BME280;28729;49.838;8.650;2023-05-09T18:17:30;99017.84;;;16.46;100.00
43119;BME280;28729;49.838;8.650;2023-05-09T18:21:32;99020.19;;;16.38;100.00
43119;BME280;28729;49.838;8.650;2023-05-09T18:30:09;99027.47;;;16.21;100.00
43119;BME280;28729;49.838;8.650;2023-05-09T18:34:11;99047.41;;;16.09;100.00
43119;BME280;28729;49.838;8.650;2023-05-09T18:38:13;99047.19;;;16.05;100.00
43119;BME280;28729;49.838;8.650;2023-05-09T18:42:15;99051.94;;;16.05;100.00
43119;BME280;28729;49.838;8.650;2023-05-09T18:46:17;99054.44;;;16.06;100.00
43119;BME280;28729;49.838;8.650;2023-05-09T18:50:21;99066.56;;;16.10;100.00
43119;BME280;28729;49.838;8.650;2023-05-09T18:54:23;99063.59;;;16.07;100.00
43119;BME280;28729;49.838;8.650;2023-05-09T18:58:25;99074.25;;;16.00;100.00
43119;BME280;28729;49.838;8.650;2023-05-09T19:02:27;99094.09;;;15.93;100.00
43119;BME280;28729;49.838;8.650;2023-05-09T19:06:30;99092.59;;;15.82;100.00
43119;BME280;28729;49.838;8.650;2023-05-09T19:10:33;99094.47;;;15.67;100.00
43119;BME280;28729;49.838;8.650;2023-05-09T19:14:35;99091.91;;;15.52;100.00
43119;BME280;28729;49.838;8.650;2023-05-09T19:18:38;99085.16;;;15.39;100.00
43119;BME280;28729;49.838;8.650;2023-05-09T19:22:43;99087.84;;;15.25;100.00
43119;BME280;28729;49.838;8.650;2023-05-09T19:26:48;99087.66;;;15.17;100.00
43119;BME280;28729;49.838;8.650;2023-05-09T19:30:50;99075.53;;;15.13;100.00
43119;BME280;28729;49.838;8.650;2023-05-09T19:34:52;99068.94;;;15.09;100.00
43119;BME280;28729;49.838;8.650;2023-05-09T19:38:54;99075.59;;;15.08;100.00
43119;BME280;28729;49.838;8.650;2023-05-09T19:42:56;99074.53;;;15.03;100.00
43119;BME280;28729;49.838;8.650;2023-05-09T19:46:58;99072.03;;;15.02;100.00
43119;BME280;28729;49.838;8.650;2023-05-09T19:51:01;99066.28;;;14.98;100.00
43119;BME280;28729;49.838;8.650;2023-05-09T19:55:03;99072.94;;;14.97;100.00
43119;BME280;28729;49.838;8.650;2023-05-09T19:59:06;99068.53;;;14.96;100.00
43119;BME280;28729;49.838;8.650;2023-05-09T20:03:11;99062.44;;;14.94;100.00
43119;BME280;28729;49.838;8.650;2023-05-09T20:07:13;99068.28;;;14.93;100.00
43119;BME280;28729;49.838;8.650;2023-05-09T20:11:15;99079.63;;;14.96;100.00
43119;BME280;28729;49.838;8.650;2023-05-09T20:15:17;99077.97;;;14.95;100.00
43119;BME280;28729;49.838;8.650;2023-05-09T20:19:19;99079.91;;;14.95;100.00
43119;BME280;28729;49.838;8.650;2023-05-09T20:23:23;99074.38;;;14.95;100.00
43119;BME280;28729;49.838;8.650;2023-05-09T20:27:25;99072.50;;;14.90;100.00
43119;BME280;28729;49.838;8.650;2023-05-09T20:31:27;99063.63;;;14.88;100.00
43119;BME280;28729;49.838;8.650;2023-05-09T20:35:29;99067.81;;;14.86;100.00
43119;BME280;28729;49.838;8.650;2023-05-09T20:39:31;99063.69;;;14.83;100.00
43119;BME280;28729;49.838;8.650;2023-05-09T20:43:33;99068.69;;;14.81;100.00
43119;BME280;28729;49.838;8.650;2023-05-09T20:47:35;99065.94;;;14.81;100.00
43119;BME280;28729;49.838;8.650;2023-05-09T20:51:37;99067.06;;;14.80;100.00
43119;BME280;28729;49.838;8.650;2023-05-09T20:55:38;99064.28;;;14.80;100.00
43119;BME280;28729;49.838;8.650;2023-05-09T20:59:40;99062.88;;;14.82;100.00
43119;BME280;28729;49.838;8.650;2023-05-09T21:03:42;99048.19;;;14.82;100.00
43119;BME280;28729;49.838;8.650;2023-05-09T21:07:44;99049.81;;;14.83;100.00
43119;BME280;28729;49.838;8.650;2023-05-09T21:11:46;99048.41;;;14.86;100.00
43119;BME280;28729;49.838;8.650;2023-05-09T21:15:48;99056.19;;;14.84;100.00
43119;BME280;28729;49.838;8.650;2023-05-09T21:19:52;99045.41;;;14.82;100.00
43119;BME280;28729;49.838;8.650;2023-05-09T21:23:54;99040.97;;;14.81;100.00
43119;BME280;28729;49.838;8.650;2023-05-09T21:27:56;99039.31;;;14.80;100.00